createdAt,value
2022-08-04T00:00:16.000Z,0.00
2022-08-04T00:00:46.000Z,0.00
2022-08-04T00:01:16.000Z,0.00
2022-08-04T00:01:44.000Z,0.00
2022-08-04T00:02:06.000Z,0.00
2022-08-04T00:02:36.000Z,0.00
2022-08-04T00:03:11.000Z,0.00
2022-08-04T00:03:41.000Z,0.00
2022-08-04T00:04:16.000Z,0.00
2022-08-04T00:04:47.000Z,0.00
2022-08-04T00:05:20.000Z,0.00
2022-08-04T00:05:44.000Z,0.00
2022-08-04T00:06:03.000Z,0.00
2022-08-04T00:06:20.000Z,0.00
2022-08-04T00:06:36.000Z,0.00
2022-08-04T00:07:11.000Z,0.00
2022-08-04T00:07:41.000Z,0.00
2022-08-04T00:08:17.000Z,0.00
2022-08-04T00:08:46.000Z,0.00
2022-08-04T00:09:16.000Z,0.00
2022-08-04T00:09:44.000Z,0.00
2022-08-04T00:10:07.000Z,0.00
2022-08-04T00:10:36.000Z,0.00
2022-08-04T00:11:11.000Z,0.00
2022-08-04T00:11:41.000Z,0.00
2022-08-04T00:12:16.000Z,0.00
2022-08-04T00:12:56.000Z,0.00
2022-08-04T00:13:17.000Z,0.00
2022-08-04T00:13:44.000Z,0.00
2022-08-04T00:14:06.000Z,0.00
2022-08-04T00:14:36.000Z,0.00
2022-08-04T00:14:53.000Z,0.00
2022-08-04T00:15:26.000Z,0.00
2022-08-04T00:15:48.000Z,0.00
2022-08-04T00:16:16.000Z,0.00
2022-08-04T00:16:46.000Z,0.00
2022-08-04T00:17:17.000Z,0.00
2022-08-04T00:17:44.000Z,0.00
2022-08-04T00:18:06.000Z,0.00
2022-08-04T00:18:36.000Z,0.00
2022-08-04T00:19:12.000Z,0.00
2022-08-04T00:19:41.000Z,0.00
2022-08-04T00:20:16.000Z,0.00
2022-08-04T00:20:46.000Z,0.00
2022-08-04T00:21:16.000Z,0.00
2022-08-04T00:21:44.000Z,0.00
2022-08-04T00:22:06.000Z,0.00
2022-08-04T00:22:36.000Z,0.00
2022-08-04T00:23:11.000Z,0.00
2022-08-04T00:23:41.000Z,0.00
2022-08-04T00:24:16.000Z,0.00
2022-08-04T00:24:46.000Z,0.00
2022-08-04T00:25:16.000Z,0.00
2022-08-04T00:25:53.000Z,0.00
2022-08-04T00:26:19.000Z,0.00
2022-08-04T00:26:46.000Z,0.00
2022-08-04T00:27:11.000Z,0.00
2022-08-04T00:27:39.000Z,0.00
2022-08-04T00:28:02.000Z,0.00
2022-08-04T00:28:27.000Z,0.00
2022-08-04T00:28:56.000Z,0.00
2022-08-04T00:29:19.000Z,0.00
2022-08-04T00:29:46.000Z,0.00
2022-08-04T00:30:09.000Z,0.00
2022-08-04T00:30:36.000Z,0.00
2022-08-04T00:31:11.000Z,0.00
2022-08-04T00:31:51.000Z,0.00
2022-08-04T00:32:27.000Z,0.00
2022-08-04T00:32:56.000Z,0.00
2022-08-04T00:33:19.000Z,0.00
2022-08-04T00:33:46.000Z,0.00
2022-08-04T00:34:09.000Z,0.00
2022-08-04T00:34:36.000Z,0.00
2022-08-04T00:35:11.000Z,0.00
2022-08-04T00:35:41.000Z,0.00
2022-08-04T00:36:16.000Z,0.00
2022-08-04T00:36:46.000Z,0.00
2022-08-04T00:37:16.000Z,0.00
2022-08-04T00:37:44.000Z,0.00
2022-08-04T00:38:06.000Z,0.00
2022-08-04T00:38:36.000Z,0.00
2022-08-04T00:39:11.000Z,0.00
2022-08-04T00:39:41.000Z,0.00
2022-08-04T00:40:16.000Z,0.00
2022-08-04T00:40:46.000Z,0.00
2022-08-04T00:41:20.000Z,0.00
2022-08-04T00:41:44.000Z,0.00
2022-08-04T00:42:21.000Z,0.00
2022-08-04T00:42:46.000Z,0.00
2022-08-04T00:43:11.000Z,0.00
2022-08-04T00:43:51.000Z,0.00
2022-08-04T00:44:16.000Z,0.00
2022-08-04T00:44:47.000Z,0.00
2022-08-04T00:45:17.000Z,0.00
2022-08-04T00:45:44.000Z,0.00
2022-08-04T00:46:07.000Z,0.00
2022-08-04T00:46:36.000Z,0.00
2022-08-04T00:47:11.000Z,0.00
2022-08-04T00:47:41.000Z,0.00
2022-08-04T00:48:16.000Z,0.00
2022-08-04T00:48:47.000Z,0.00
2022-08-04T00:49:16.000Z,0.00
2022-08-04T00:49:44.000Z,0.00
2022-08-04T00:49:44.000Z,0.00
2022-08-04T00:50:06.000Z,0.00
2022-08-04T00:50:06.000Z,0.00
2022-08-04T00:50:36.000Z,0.00
2022-08-04T00:50:36.000Z,0.00
2022-08-04T00:51:11.000Z,0.00
2022-08-04T00:51:11.000Z,0.00
2022-08-04T00:51:51.000Z,0.00
2022-08-04T00:51:51.000Z,0.00
2022-08-04T00:52:16.000Z,0.00
2022-08-04T00:52:49.000Z,0.00
2022-08-04T00:53:20.000Z,0.00
2022-08-04T00:53:46.000Z,0.00
2022-08-04T00:54:09.000Z,0.00
2022-08-04T00:54:36.000Z,0.00
2022-08-04T00:55:11.000Z,0.00
2022-08-04T00:55:51.000Z,0.00
2022-08-04T00:56:16.000Z,0.00
2022-08-04T00:56:43.000Z,0.00
2022-08-04T00:57:01.000Z,0.00
2022-08-04T00:57:37.000Z,0.00
2022-08-04T00:58:06.000Z,0.00
2022-08-04T00:58:36.000Z,0.00
2022-08-04T00:59:11.000Z,0.00
2022-08-04T00:59:41.000Z,0.00
2022-08-04T01:00:16.000Z,0.00
2022-08-04T01:00:47.000Z,0.00
2022-08-04T01:01:16.000Z,0.00
2022-08-04T01:01:44.000Z,0.00
2022-08-04T01:02:06.000Z,0.00
2022-08-04T01:02:36.000Z,0.00
2022-08-04T01:03:11.000Z,0.00
2022-08-04T01:03:39.000Z,0.00
2022-08-04T01:04:02.000Z,0.00
2022-08-04T01:04:31.000Z,0.00
2022-08-04T01:05:01.000Z,0.00
2022-08-04T01:05:37.000Z,0.00
2022-08-04T01:06:06.000Z,0.00
2022-08-04T01:06:36.000Z,0.00
2022-08-04T01:07:11.000Z,0.00
2022-08-04T01:07:42.000Z,0.00
2022-08-04T01:08:16.000Z,0.00
2022-08-04T01:08:46.000Z,0.00
2022-08-04T01:09:16.000Z,0.00
2022-08-04T01:09:44.000Z,0.00
2022-08-04T01:10:06.000Z,0.00
2022-08-04T01:10:36.000Z,0.00
2022-08-04T01:10:56.000Z,0.00
2022-08-04T01:11:23.000Z,0.00
2022-08-04T01:11:41.000Z,0.00
2022-08-04T01:12:16.000Z,0.00
2022-08-04T01:12:47.000Z,0.00
2022-08-04T01:13:16.000Z,0.00
2022-08-04T01:13:44.000Z,0.00
2022-08-04T01:14:06.000Z,0.00
2022-08-04T01:14:36.000Z,0.00
2022-08-04T01:15:11.000Z,0.00
2022-08-04T01:15:41.000Z,0.00
2022-08-04T01:16:16.000Z,0.00
2022-08-04T01:16:46.000Z,0.00
2022-08-04T01:17:16.000Z,0.00
2022-08-04T01:17:44.000Z,0.00
2022-08-04T01:18:06.000Z,0.00
2022-08-04T01:18:46.000Z,0.00
2022-08-04T01:19:11.000Z,0.00
2022-08-04T01:19:41.000Z,0.00
2022-08-04T01:20:16.000Z,0.00
2022-08-04T01:20:47.000Z,0.00
2022-08-04T01:21:16.000Z,0.00
2022-08-04T01:21:44.000Z,0.00
2022-08-04T01:22:06.000Z,0.00
2022-08-04T01:22:36.000Z,0.00
2022-08-04T01:23:12.000Z,0.00
2022-08-04T01:23:41.000Z,0.00
2022-08-04T01:24:16.000Z,0.00
2022-08-04T01:24:46.000Z,0.00
2022-08-04T01:25:17.000Z,0.00
2022-08-04T01:25:52.000Z,0.00
2022-08-04T01:26:19.000Z,0.00
2022-08-04T01:26:46.000Z,0.00
2022-08-04T01:27:23.000Z,0.00
2022-08-04T01:27:51.000Z,0.00
2022-08-04T01:28:16.000Z,0.00
2022-08-04T01:28:43.000Z,0.00
2022-08-04T01:29:11.000Z,0.00
2022-08-04T01:29:46.000Z,0.00
2022-08-04T01:30:09.000Z,0.00
2022-08-04T01:30:36.000Z,0.00
2022-08-04T01:30:53.000Z,0.00
2022-08-04T01:31:26.000Z,0.00
2022-08-04T01:31:48.000Z,0.00
2022-08-04T01:31:48.000Z,0.00
2022-08-04T01:32:16.000Z,0.00
2022-08-04T01:32:16.000Z,0.00
2022-08-04T01:32:47.000Z,0.00
2022-08-04T01:32:47.000Z,0.00
2022-08-04T01:33:16.000Z,0.00
2022-08-04T01:33:16.000Z,0.00
2022-08-04T01:33:44.000Z,0.00
2022-08-04T01:33:44.000Z,0.00
2022-08-04T01:34:03.000Z,0.00
2022-08-04T01:34:37.000Z,0.00
2022-08-04T01:35:11.000Z,0.00
2022-08-04T01:35:41.000Z,0.00
2022-08-04T01:36:17.000Z,0.00
2022-08-04T01:36:46.000Z,0.00
2022-08-04T01:37:29.000Z,0.00
2022-08-04T01:38:07.000Z,0.00
2022-08-04T01:38:51.000Z,0.00
2022-08-04T01:39:16.000Z,0.00
2022-08-04T01:39:42.000Z,0.00
2022-08-04T01:40:16.000Z,0.00
2022-08-04T01:40:46.000Z,0.00
2022-08-04T01:41:16.000Z,0.00
2022-08-04T01:41:44.000Z,0.00
2022-08-04T01:42:06.000Z,0.00
2022-08-04T01:42:37.000Z,0.00
2022-08-04T01:43:11.000Z,0.00
2022-08-04T01:43:41.000Z,0.00
2022-08-04T01:44:16.000Z,0.00
2022-08-04T01:44:46.000Z,0.00
2022-08-04T01:45:16.000Z,0.00
2022-08-04T01:45:44.000Z,0.00
2022-08-04T01:46:06.000Z,0.00
2022-08-04T01:46:46.000Z,0.00
2022-08-04T01:47:11.000Z,0.00
2022-08-04T01:47:39.000Z,0.00
2022-08-04T01:48:02.000Z,0.00
2022-08-04T01:48:27.000Z,0.00
2022-08-04T01:48:56.000Z,0.00
2022-08-04T01:49:19.000Z,0.00
2022-08-04T01:49:46.000Z,0.00
2022-08-04T01:50:09.000Z,0.00
2022-08-04T01:50:36.000Z,0.00
2022-08-04T01:51:11.000Z,0.00
2022-08-04T01:51:51.000Z,0.00
2022-08-04T01:52:16.000Z,0.00
2022-08-04T01:52:43.000Z,0.00
2022-08-04T01:53:01.000Z,0.00
2022-08-04T01:53:36.000Z,0.00
2022-08-04T01:54:06.000Z,0.00
2022-08-04T01:54:36.000Z,0.00
2022-08-04T01:55:12.000Z,0.00
2022-08-04T01:55:41.000Z,0.00
2022-08-04T01:56:16.000Z,0.00
2022-08-04T01:56:46.000Z,0.00
2022-08-04T01:57:16.000Z,0.00
2022-08-04T01:57:44.000Z,0.00
2022-08-04T01:58:06.000Z,0.00
2022-08-04T01:58:36.000Z,0.00
2022-08-04T01:59:11.000Z,0.00
2022-08-04T01:59:39.000Z,0.00
2022-08-04T02:00:02.000Z,0.00
2022-08-04T02:00:27.000Z,0.00
2022-08-04T02:00:56.000Z,0.00
2022-08-04T02:01:19.000Z,0.00
2022-08-04T02:01:46.000Z,0.00
2022-08-04T02:01:46.000Z,0.00
2022-08-04T02:02:09.000Z,0.00
2022-08-04T02:02:09.000Z,0.00
2022-08-04T02:02:36.000Z,0.00
2022-08-04T02:02:36.000Z,0.00
2022-08-04T02:03:11.000Z,0.00
2022-08-04T02:03:11.000Z,0.00
2022-08-04T02:03:42.000Z,0.00
2022-08-04T02:03:42.000Z,0.00
2022-08-04T02:04:16.000Z,0.00
2022-08-04T02:04:46.000Z,0.00
2022-08-04T02:05:16.000Z,0.00
2022-08-04T02:05:44.000Z,0.00
2022-08-04T02:06:07.000Z,0.00
2022-08-04T02:06:36.000Z,0.00
2022-08-04T02:07:11.000Z,0.00
2022-08-04T02:07:41.000Z,0.00
2022-08-04T02:08:16.000Z,0.00
2022-08-04T02:08:56.000Z,0.00
2022-08-04T02:09:19.000Z,0.00
2022-08-04T02:09:46.000Z,0.00
2022-08-04T02:10:09.000Z,0.00
2022-08-04T02:10:36.000Z,0.00
2022-08-04T02:11:11.000Z,0.00
2022-08-04T02:11:41.000Z,0.00
2022-08-04T02:12:16.000Z,0.00
2022-08-04T02:12:47.000Z,0.00
2022-08-04T02:13:16.000Z,0.00
2022-08-04T02:13:44.000Z,0.00
2022-08-04T02:14:06.000Z,0.00
2022-08-04T02:14:36.000Z,0.00
2022-08-04T02:15:11.000Z,0.00
2022-08-04T02:15:41.000Z,0.00
2022-08-04T02:16:16.000Z,0.00
2022-08-04T02:16:46.000Z,0.00
2022-08-04T02:17:16.000Z,0.00
2022-08-04T02:17:44.000Z,0.00
2022-08-04T02:18:03.000Z,0.00
2022-08-04T02:18:20.000Z,0.00
2022-08-04T02:18:36.000Z,0.00
2022-08-04T02:19:11.000Z,0.00
2022-08-04T02:19:41.000Z,0.00
2022-08-04T02:20:16.000Z,0.00
2022-08-04T02:20:46.000Z,0.00
2022-08-04T02:21:16.000Z,0.00
2022-08-04T02:21:44.000Z,0.00
2022-08-04T02:22:06.000Z,0.00
2022-08-04T02:22:37.000Z,0.00
2022-08-04T02:23:11.000Z,0.00
2022-08-04T02:23:41.000Z,0.00
2022-08-04T02:24:16.000Z,0.00
2022-08-04T02:24:43.000Z,0.00
2022-08-04T02:25:01.000Z,0.00
2022-08-04T02:25:36.000Z,0.00
2022-08-04T02:26:06.000Z,0.00
2022-08-04T02:26:36.000Z,0.00
2022-08-04T02:27:11.000Z,0.00
2022-08-04T02:27:43.000Z,0.00
2022-08-04T02:28:16.000Z,0.00
2022-08-04T02:28:47.000Z,0.00
2022-08-04T02:29:16.000Z,0.00
2022-08-04T02:29:44.000Z,0.00
2022-08-04T02:30:06.000Z,0.00
2022-08-04T02:30:36.000Z,0.00
2022-08-04T02:31:11.000Z,0.00
2022-08-04T02:31:51.000Z,0.00
2022-08-04T02:32:17.000Z,0.00
2022-08-04T02:32:46.000Z,0.00
2022-08-04T02:33:16.000Z,0.00
2022-08-04T02:33:44.000Z,0.00
2022-08-04T02:34:06.000Z,0.00
2022-08-04T02:34:36.000Z,0.00
2022-08-04T02:35:11.000Z,0.00
2022-08-04T02:35:41.000Z,0.00
2022-08-04T02:36:16.000Z,0.00
2022-08-04T02:36:46.000Z,0.00
2022-08-04T02:37:16.000Z,0.00
2022-08-04T02:37:44.000Z,0.00
2022-08-04T02:38:06.000Z,0.00
2022-08-04T02:38:46.000Z,0.00
2022-08-04T02:39:11.000Z,0.00
2022-08-04T02:39:39.000Z,0.00
2022-08-04T02:40:02.000Z,0.00
2022-08-04T02:40:27.000Z,0.00
2022-08-04T02:40:56.000Z,0.00
2022-08-04T02:41:36.000Z,0.00
2022-08-04T02:41:53.000Z,0.00
2022-08-04T02:42:19.000Z,0.00
2022-08-04T02:42:46.000Z,0.00
2022-08-04T02:43:11.000Z,0.00
2022-08-04T02:43:41.000Z,0.00
2022-08-04T02:44:16.000Z,0.00
2022-08-04T02:44:47.000Z,0.00
2022-08-04T02:45:18.000Z,0.00
2022-08-04T02:45:44.000Z,0.00
2022-08-04T02:46:06.000Z,0.00
2022-08-04T02:46:36.000Z,0.00
2022-08-04T02:47:11.000Z,0.00
2022-08-04T02:47:41.000Z,0.00
2022-08-04T02:48:17.000Z,0.00
2022-08-04T02:49:01.000Z,0.00
2022-08-04T02:49:46.000Z,0.00
2022-08-04T02:50:09.000Z,0.00
2022-08-04T02:50:36.000Z,0.00
2022-08-04T02:50:53.000Z,0.00
2022-08-04T02:51:26.000Z,0.00
2022-08-04T02:51:48.000Z,0.00
2022-08-04T02:52:16.000Z,0.00
2022-08-04T02:52:46.000Z,0.00
2022-08-04T02:53:16.000Z,0.00
2022-08-04T02:53:44.000Z,0.00
2022-08-04T02:54:07.000Z,0.00
2022-08-04T02:54:37.000Z,0.00
2022-08-04T02:55:11.000Z,0.00
2022-08-04T02:55:41.000Z,0.00
2022-08-04T02:56:16.000Z,0.00
2022-08-04T02:56:46.000Z,0.00
2022-08-04T02:57:17.000Z,0.00
2022-08-04T02:57:44.000Z,0.00
2022-08-04T02:58:06.000Z,0.00
2022-08-04T02:58:36.000Z,0.00
2022-08-04T02:59:11.000Z,0.00
2022-08-04T02:59:41.000Z,0.00
2022-08-04T03:00:16.000Z,0.00
2022-08-04T03:00:46.000Z,0.00
2022-08-04T03:01:16.000Z,0.00
2022-08-04T03:01:44.000Z,0.00
2022-08-04T03:02:06.000Z,0.00
2022-08-04T03:02:36.000Z,0.00
2022-08-04T03:03:11.000Z,0.00
2022-08-04T03:03:41.000Z,0.00
2022-08-04T03:04:16.000Z,0.00
2022-08-04T03:04:46.000Z,0.00
2022-08-04T03:05:16.000Z,0.00
2022-08-04T03:05:44.000Z,0.00
2022-08-04T03:06:03.000Z,0.00
2022-08-04T03:06:20.000Z,0.00
2022-08-04T03:06:46.000Z,0.00
2022-08-04T03:07:11.000Z,0.00
2022-08-04T03:07:41.000Z,0.00
2022-08-04T03:08:16.000Z,0.00
2022-08-04T03:08:46.000Z,0.00
2022-08-04T03:09:16.000Z,0.00
2022-08-04T03:09:44.000Z,0.00
2022-08-04T03:10:06.000Z,0.00
2022-08-04T03:10:46.000Z,0.00
2022-08-04T03:11:11.000Z,0.00
2022-08-04T03:11:39.000Z,0.00
2022-08-04T03:12:02.000Z,0.00
2022-08-04T03:12:27.000Z,0.00
2022-08-04T03:12:56.000Z,0.00
2022-08-04T03:13:19.000Z,0.00
2022-08-04T03:13:46.000Z,0.00
2022-08-04T03:14:06.000Z,0.00
2022-08-04T03:14:36.000Z,0.00
2022-08-04T03:15:12.000Z,0.00
2022-08-04T03:15:41.000Z,0.00
2022-08-04T03:16:16.000Z,0.00
2022-08-04T03:16:46.000Z,0.00
2022-08-04T03:17:16.000Z,0.00
2022-08-04T03:17:44.000Z,0.00
2022-08-04T03:18:06.000Z,0.00
2022-08-04T03:18:36.000Z,0.00
2022-08-04T03:19:11.000Z,0.00
2022-08-04T03:19:41.000Z,0.00
2022-08-04T03:20:16.000Z,0.00
2022-08-04T03:20:48.000Z,0.00
2022-08-04T03:21:19.000Z,0.00
2022-08-04T03:21:44.000Z,0.00
2022-08-04T03:22:06.000Z,0.00
2022-08-04T03:22:36.000Z,0.00
2022-08-04T03:23:11.000Z,0.00
2022-08-04T03:23:41.000Z,0.00
2022-08-04T03:24:16.000Z,0.00
2022-08-04T03:24:46.000Z,0.00
2022-08-04T03:25:16.000Z,0.00
2022-08-04T03:25:44.000Z,0.00
2022-08-04T03:26:06.000Z,0.00
2022-08-04T03:26:37.000Z,0.00
2022-08-04T03:27:11.000Z,0.00
2022-08-04T03:27:39.000Z,0.00
2022-08-04T03:28:02.000Z,0.00
2022-08-04T03:28:31.000Z,0.00
2022-08-04T03:29:01.000Z,0.00
2022-08-04T03:29:36.000Z,0.00
2022-08-04T03:30:06.000Z,0.00
2022-08-04T03:30:36.000Z,0.00
2022-08-04T03:31:11.000Z,0.00
2022-08-04T03:31:41.000Z,0.00
2022-08-04T03:32:16.000Z,0.00
2022-08-04T03:32:46.000Z,0.00
2022-08-04T03:33:16.000Z,0.00
2022-08-04T03:33:44.000Z,0.00
2022-08-04T03:34:06.000Z,0.00
2022-08-04T03:34:46.000Z,0.00
2022-08-04T03:35:11.000Z,0.00
2022-08-04T03:35:39.000Z,0.00
2022-08-04T03:36:02.000Z,0.00
2022-08-04T03:36:31.000Z,0.00
2022-08-04T03:37:01.000Z,0.00
2022-08-04T03:37:36.000Z,0.00
2022-08-04T03:38:06.000Z,0.00
2022-08-04T03:38:36.000Z,0.00
2022-08-04T03:39:12.000Z,0.00
2022-08-04T03:39:41.000Z,0.00
2022-08-04T03:40:16.000Z,0.00
2022-08-04T03:40:46.000Z,0.00
2022-08-04T03:41:16.000Z,0.00
2022-08-04T03:41:44.000Z,0.00
2022-08-04T03:42:06.000Z,0.00
2022-08-04T03:42:46.000Z,0.00
2022-08-04T03:43:11.000Z,0.00
2022-08-04T03:43:39.000Z,0.00
2022-08-04T03:44:26.000Z,0.00
2022-08-04T03:44:46.000Z,0.00
2022-08-04T03:45:16.000Z,0.00
2022-08-04T03:45:44.000Z,0.00
2022-08-04T03:46:06.000Z,0.00
2022-08-04T03:46:36.000Z,0.00
2022-08-04T03:47:11.000Z,0.00
2022-08-04T03:47:41.000Z,0.00
2022-08-04T03:48:16.000Z,0.85
2022-08-04T03:48:46.000Z,0.00
2022-08-04T03:49:16.000Z,0.00
2022-08-04T03:49:44.000Z,0.00
2022-08-04T03:50:03.000Z,0.00
2022-08-04T03:50:20.000Z,0.85
2022-08-04T03:50:46.000Z,0.00
2022-08-04T03:51:11.000Z,0.00
2022-08-04T03:51:51.000Z,0.36
2022-08-04T03:52:16.000Z,0.00
2022-08-04T03:52:43.000Z,0.36
2022-08-04T03:53:20.000Z,1.71
2022-08-04T03:53:44.000Z,0.36
2022-08-04T03:54:03.000Z,0.36
2022-08-04T03:54:36.000Z,0.36
2022-08-04T03:54:56.000Z,0.85
2022-08-04T03:55:26.000Z,1.22
2022-08-04T03:55:48.000Z,0.85
2022-08-04T03:56:16.000Z,1.22
2022-08-04T03:56:46.000Z,1.71
2022-08-04T03:57:17.000Z,1.22
2022-08-04T03:57:44.000Z,1.22
2022-08-04T03:58:06.000Z,1.22
2022-08-04T03:58:36.000Z,2.08
2022-08-04T03:59:11.000Z,2.08
2022-08-04T03:59:41.000Z,1.71
2022-08-04T04:00:16.000Z,1.71
2022-08-04T04:00:46.000Z,2.08
2022-08-04T04:01:16.000Z,2.57
2022-08-04T04:01:46.000Z,2.94
2022-08-04T04:02:09.000Z,2.57
2022-08-04T04:02:36.000Z,2.94
2022-08-04T04:03:11.000Z,2.94
2022-08-04T04:03:41.000Z,2.94
2022-08-04T04:04:16.000Z,3.79
2022-08-04T04:04:46.000Z,3.79
2022-08-04T04:05:16.000Z,3.43
2022-08-04T04:05:44.000Z,3.43
2022-08-04T04:06:06.000Z,4.28
2022-08-04T04:06:36.000Z,5.14
2022-08-04T04:07:11.000Z,5.63
2022-08-04T04:07:41.000Z,5.14
2022-08-04T04:08:16.000Z,4.77
2022-08-04T04:08:46.000Z,5.63
2022-08-04T04:09:20.000Z,6.48
2022-08-04T04:09:44.000Z,5.14
2022-08-04T04:10:06.000Z,6.48
2022-08-04T04:10:36.000Z,6.48
2022-08-04T04:11:11.000Z,6.85
2022-08-04T04:11:41.000Z,7.34
2022-08-04T04:12:16.000Z,7.70
2022-08-04T04:12:46.000Z,7.34
2022-08-04T04:13:16.000Z,8.19
2022-08-04T04:13:44.000Z,8.19
2022-08-04T04:14:06.000Z,8.56
2022-08-04T04:14:37.000Z,9.05
2022-08-04T04:15:11.000Z,9.54
2022-08-04T04:15:41.000Z,9.54
2022-08-04T04:16:16.000Z,10.39
2022-08-04T04:16:47.000Z,10.39
2022-08-04T04:17:16.000Z,10.39
2022-08-04T04:17:44.000Z,9.91
2022-08-04T04:18:06.000Z,11.62
2022-08-04T04:18:36.000Z,11.62
2022-08-04T04:19:11.000Z,11.62
2022-08-04T04:19:41.000Z,12.48
2022-08-04T04:20:16.000Z,12.97
2022-08-04T04:20:46.000Z,13.82
2022-08-04T04:21:16.000Z,14.31
2022-08-04T04:21:44.000Z,15.17
2022-08-04T04:22:03.000Z,15.53
2022-08-04T04:22:20.000Z,16.39
2022-08-04T04:22:46.000Z,16.02
2022-08-04T04:23:11.000Z,17.25
2022-08-04T04:23:41.000Z,17.73
2022-08-04T04:24:16.000Z,18.60
2022-08-04T04:24:46.000Z,18.60
2022-08-04T04:25:16.000Z,19.94
2022-08-04T04:25:44.000Z,19.94
2022-08-04T04:26:06.000Z,20.80
2022-08-04T04:26:36.000Z,21.16
2022-08-04T04:27:11.000Z,22.51
2022-08-04T04:27:41.000Z,22.51
2022-08-04T04:28:16.000Z,22.02
2022-08-04T04:28:49.000Z,23.36
2022-08-04T04:29:20.000Z,22.87
2022-08-04T04:29:44.000Z,22.87
2022-08-04T04:30:06.000Z,22.87
2022-08-04T04:30:36.000Z,22.87
2022-08-04T04:31:11.000Z,22.87
2022-08-04T04:31:41.000Z,23.85
2022-08-04T04:32:16.000Z,23.85
2022-08-04T04:32:47.000Z,23.85
2022-08-04T04:33:16.000Z,23.85
2022-08-04T04:33:44.000Z,24.22
2022-08-04T04:34:06.000Z,24.71
2022-08-04T04:34:36.000Z,25.07
2022-08-04T04:35:11.000Z,24.22
2022-08-04T04:35:51.000Z,24.71
2022-08-04T04:36:16.000Z,25.56
2022-08-04T04:36:43.000Z,25.56
2022-08-04T04:37:11.000Z,25.56
2022-08-04T04:37:36.000Z,26.42
2022-08-04T04:38:03.000Z,26.42
2022-08-04T04:38:29.000Z,25.94
2022-08-04T04:38:56.000Z,26.79
2022-08-04T04:39:23.000Z,27.28
2022-08-04T04:39:51.000Z,27.65
2022-08-04T04:40:16.000Z,27.28
2022-08-04T04:40:43.000Z,27.65
2022-08-04T04:41:11.000Z,27.65
2022-08-04T04:41:36.000Z,27.65
2022-08-04T04:42:06.000Z,27.28
2022-08-04T04:42:36.000Z,28.14
2022-08-04T04:43:11.000Z,28.14
2022-08-04T04:43:41.000Z,28.63
2022-08-04T04:44:16.000Z,28.99
2022-08-04T04:44:46.000Z,28.14
2022-08-04T04:45:16.000Z,28.63
2022-08-04T04:45:44.000Z,28.99
2022-08-04T04:46:06.000Z,29.48
2022-08-04T04:46:36.000Z,28.99
2022-08-04T04:47:11.000Z,28.63
2022-08-04T04:47:41.000Z,28.63
2022-08-04T04:48:16.000Z,29.85
2022-08-04T04:48:43.000Z,29.85
2022-08-04T04:49:11.000Z,29.85
2022-08-04T04:49:36.000Z,29.85
2022-08-04T04:50:03.000Z,30.34
2022-08-04T04:50:29.000Z,29.48
2022-08-04T04:50:56.000Z,31.19
2022-08-04T04:51:26.000Z,30.34
2022-08-04T04:51:48.000Z,30.70
2022-08-04T04:52:16.000Z,31.56
2022-08-04T04:52:46.000Z,32.05
2022-08-04T04:53:16.000Z,33.39
2022-08-04T04:53:44.000Z,32.90
2022-08-04T04:54:06.000Z,33.76
2022-08-04T04:54:36.000Z,34.25
2022-08-04T04:55:11.000Z,35.11
2022-08-04T04:55:41.000Z,35.97
2022-08-04T04:56:16.000Z,36.82
2022-08-04T04:56:46.000Z,37.19
2022-08-04T04:57:16.000Z,37.68
2022-08-04T04:57:44.000Z,39.02
2022-08-04T04:58:06.000Z,39.02
2022-08-04T04:58:36.000Z,40.24
2022-08-04T04:59:11.000Z,41.10
2022-08-04T04:59:41.000Z,42.45
2022-08-04T05:00:11.000Z,43.80
2022-08-04T05:00:46.000Z,44.65
2022-08-04T05:01:16.000Z,44.65
2022-08-04T05:01:44.000Z,45.51
2022-08-04T05:02:06.000Z,46.73
2022-08-04T05:02:36.000Z,48.07
2022-08-04T05:03:11.000Z,48.07
2022-08-04T05:03:41.000Z,50.28
2022-08-04T05:04:26.000Z,51.99
2022-08-04T05:04:46.000Z,53.34
2022-08-04T05:05:16.000Z,54.19
2022-08-04T05:05:44.000Z,55.05
2022-08-04T05:06:06.000Z,56.27
2022-08-04T05:06:36.000Z,56.76
2022-08-04T05:07:11.000Z,57.62
2022-08-04T05:07:42.000Z,58.97
2022-08-04T05:08:16.000Z,59.82
2022-08-04T05:08:46.000Z,61.17
2022-08-04T05:09:16.000Z,64.10
2022-08-04T05:09:44.000Z,65.45
2022-08-04T05:10:06.000Z,68.51
2022-08-04T05:10:06.000Z,68.51
2022-08-04T05:10:06.000Z,68.51
2022-08-04T05:10:06.000Z,68.51
2022-08-04T05:10:06.000Z,68.51
2022-08-04T05:10:06.000Z,68.51
2022-08-04T05:10:36.000Z,69.36
2022-08-04T05:10:36.000Z,69.36
2022-08-04T05:10:36.000Z,69.36
2022-08-04T05:10:36.000Z,69.36
2022-08-04T05:10:36.000Z,69.36
2022-08-04T05:10:36.000Z,69.36
2022-08-04T05:11:11.000Z,69.36
2022-08-04T05:11:11.000Z,69.36
2022-08-04T05:11:11.000Z,69.36
2022-08-04T05:11:11.000Z,69.36
2022-08-04T05:11:11.000Z,69.36
2022-08-04T05:11:11.000Z,69.36
2022-08-04T05:11:41.000Z,69.36
2022-08-04T05:11:41.000Z,69.36
2022-08-04T05:11:41.000Z,69.36
2022-08-04T05:11:41.000Z,69.36
2022-08-04T05:11:41.000Z,69.36
2022-08-04T05:11:41.000Z,69.36
2022-08-04T05:12:16.000Z,68.02
2022-08-04T05:12:16.000Z,68.02
2022-08-04T05:12:16.000Z,68.02
2022-08-04T05:12:16.000Z,68.02
2022-08-04T05:12:16.000Z,68.02
2022-08-04T05:12:16.000Z,68.02
2022-08-04T05:12:46.000Z,68.87
2022-08-04T05:12:46.000Z,68.87
2022-08-04T05:12:46.000Z,68.87
2022-08-04T05:12:46.000Z,68.87
2022-08-04T05:12:46.000Z,68.87
2022-08-04T05:13:16.000Z,68.87
2022-08-04T05:13:16.000Z,68.87
2022-08-04T05:13:16.000Z,68.87
2022-08-04T05:13:16.000Z,68.87
2022-08-04T05:13:44.000Z,68.51
2022-08-04T05:13:44.000Z,68.51
2022-08-04T05:13:44.000Z,68.51
2022-08-04T05:14:03.000Z,68.02
2022-08-04T05:14:03.000Z,68.02
2022-08-04T05:14:36.000Z,67.16
2022-08-04T05:15:11.000Z,67.65
2022-08-04T05:15:41.000Z,68.02
2022-08-04T05:16:16.000Z,66.80
2022-08-04T05:16:47.000Z,66.31
2022-08-04T05:17:16.000Z,65.94
2022-08-04T05:17:44.000Z,64.59
2022-08-04T05:18:07.000Z,64.59
2022-08-04T05:18:41.000Z,64.96
2022-08-04T05:19:11.000Z,65.45
2022-08-04T05:19:41.000Z,65.45
2022-08-04T05:20:16.000Z,66.31
2022-08-04T05:20:46.000Z,65.45
2022-08-04T05:21:16.000Z,64.59
2022-08-04T05:21:44.000Z,65.45
2022-08-04T05:22:06.000Z,64.96
2022-08-04T05:22:36.000Z,64.59
2022-08-04T05:23:11.000Z,62.88
2022-08-04T05:23:41.000Z,60.19
2022-08-04T05:24:16.000Z,59.82
2022-08-04T05:24:46.000Z,58.97
2022-08-04T05:25:20.000Z,60.19
2022-08-04T05:25:44.000Z,60.68
2022-08-04T05:26:03.000Z,63.73
2022-08-04T05:26:29.000Z,65.45
2022-08-04T05:26:56.000Z,69.73
2022-08-04T05:27:23.000Z,72.79
2022-08-04T05:27:51.000Z,74.50
2022-08-04T05:28:16.000Z,75.48
2022-08-04T05:28:43.000Z,77.56
2022-08-04T05:29:02.000Z,80.62
2022-08-04T05:29:36.000Z,82.82
2022-08-04T05:30:06.000Z,85.39
2022-08-04T05:30:36.000Z,88.45
2022-08-04T05:31:11.000Z,91.02
2022-08-04T05:31:41.000Z,90.16
2022-08-04T05:32:16.000Z,91.02
2022-08-04T05:32:46.000Z,85.88
2022-08-04T05:33:16.000Z,77.56
2022-08-04T05:33:44.000Z,73.65
2022-08-04T05:34:06.000Z,62.39
2022-08-04T05:34:36.000Z,56.76
2022-08-04T05:35:11.000Z,55.90
2022-08-04T05:35:41.000Z,55.90
2022-08-04T05:36:16.000Z,58.97
2022-08-04T05:36:46.000Z,62.02
2022-08-04T05:37:16.000Z,70.71
2022-08-04T05:37:44.000Z,73.28
2022-08-04T05:38:06.000Z,73.28
2022-08-04T05:38:36.000Z,84.53
2022-08-04T05:39:11.000Z,71.07
2022-08-04T05:39:41.000Z,68.51
2022-08-04T05:40:16.000Z,71.07
2022-08-04T05:40:46.000Z,73.65
2022-08-04T05:41:16.000Z,85.39
2022-08-04T05:41:44.000Z,94.93
2022-08-04T05:42:20.000Z,98.36
2022-08-04T05:42:46.000Z,110.59
2022-08-04T05:43:11.000Z,112.30
2022-08-04T05:43:51.000Z,121.36
2022-08-04T05:44:12.000Z,122.34
2022-08-04T05:44:46.000Z,124.05
2022-08-04T05:45:16.000Z,124.90
2022-08-04T05:45:44.000Z,125.76
2022-08-04T05:46:06.000Z,127.10
2022-08-04T05:46:36.000Z,127.96
2022-08-04T05:47:11.000Z,128.82
2022-08-04T05:47:41.000Z,130.04
2022-08-04T05:48:16.000Z,132.24
2022-08-04T05:48:47.000Z,133.95
2022-08-04T05:49:16.000Z,136.65
2022-08-04T05:49:52.000Z,137.87
2022-08-04T05:50:20.000Z,139.22
2022-08-04T05:50:36.000Z,139.58
2022-08-04T05:51:11.000Z,140.07
2022-08-04T05:51:41.000Z,141.42
2022-08-04T05:52:16.000Z,143.50
2022-08-04T05:52:46.000Z,145.21
2022-08-04T05:53:16.000Z,147.41
2022-08-04T05:53:44.000Z,147.90
2022-08-04T05:54:06.000Z,147.90
2022-08-04T05:54:36.000Z,148.76
2022-08-04T05:55:11.000Z,149.61
2022-08-04T05:55:41.000Z,147.05
2022-08-04T05:56:31.000Z,149.12
2022-08-04T05:57:02.000Z,151.82
2022-08-04T05:57:36.000Z,149.98
2022-08-04T05:58:06.000Z,149.61
2022-08-04T05:58:36.000Z,150.47
2022-08-04T05:59:11.000Z,151.82
2022-08-04T05:59:42.000Z,151.82
2022-08-04T06:00:16.000Z,151.82
2022-08-04T06:00:46.000Z,153.90
2022-08-04T06:01:16.000Z,155.73
2022-08-04T06:01:44.000Z,151.33